Echizen Maru — LW7108 — position and weather

sailwx.info

Track history (hours):
 
Tides and Currents Weather Stations Pressure Air Temp Water Temp Dewpoint Dewpoint Depression Visibility Wind Speed Wind Dir Waves Ship Positions

Echizen Maru

Last reported at 2018-Apr-30 00:58 UTC. Time now 2018-Jun-18 09:52 UTC.
Position S 54°50' W 068°11'.
Warning: this ship's position is 49 days out of date.

Length 89 m; draft 5.7 m.

Type: Fishing. MMSI: 701068000.

Date/timePositionNaut miles runAvg speedWind from/ knotsBaromVisibWave heightAir tempDewpointWater temp
2018-Apr-30 00:58S 54°50' W 068°11'4 9.2
2018-Apr-30 00:30S 54°49' W 068°18'0 0.2
2018-Apr-30 00:00S 54°49' W 068°18'0 0.0
2018-Apr-29 23:29S 54°49' W 068°18'0 0.0
2018-Apr-29 21:47S 54°49' W 068°18'0 0.0
2018-Apr-29 21:20S 54°49' W 068°18'0 0.0
2018-Apr-29 20:56S 54°49' W 068°18'0 0.0
2018-Apr-29 20:29S 54°49' W 068°18'0 0.0
2018-Apr-29 19:53S 54°49' W 068°18'0 0.0
2018-Apr-29 19:26S 54°49' W 068°18'0 0.0
2018-Apr-29 18:59S 54°49' W 068°18'0 0.0
2018-Apr-29 18:17S 54°49' W 068°18'0 0.0
2018-Apr-29 17:53S 54°49' W 068°18'0 0.0
2018-Apr-29 17:26S 54°49' W 068°18'0 0.0
2018-Apr-29 16:56S 54°49' W 068°18'0 0.0
2018-Apr-29 16:29S 54°49' W 068°18'0 0.0
2018-Apr-29 15:32S 54°49' W 068°18'0 0.0
2018-Apr-29 14:38S 54°49' W 068°18'0 0.0
2018-Apr-29 14:26S 54°49' W 068°18'0 0.0
2018-Apr-29 13:44S 54°49' W 068°18'0 0.0
2018-Apr-29 13:26S 54°49' W 068°18'0 0.0
2018-Apr-29 12:56S 54°49' W 068°18'0 0.0
2018-Apr-29 12:23S 54°49' W 068°18'0 0.0
2018-Apr-29 11:59S 54°49' W 068°18'0 0.0
2018-Apr-29 11:23S 54°49' W 068°18'0 0.0
2018-Apr-29 10:53S 54°49' W 068°18'0 0.0
2018-Apr-29 10:29S 54°49' W 068°18'0 0.0
2018-Apr-29 09:59S 54°49' W 068°18'0 0.0
2018-Apr-29 09:26S 54°49' W 068°18'0 0.0
2018-Apr-29 08:56S 54°49' W 068°18'0 0.0
2018-Apr-29 08:14S 54°49' W 068°18'0 0.0
2018-Apr-29 07:44S 54°49' W 068°18'0 0.0
2018-Apr-29 07:26S 54°49' W 068°18'0 0.0
2018-Apr-29 06:20S 54°49' W 068°18'0 0.0
2018-Apr-29 05:50S 54°49' W 068°18'0 0.0
2018-Apr-29 05:23S 54°49' W 068°18'0 0.0
2018-Apr-29 04:56S 54°49' W 068°18'0 0.0
2018-Apr-29 04:26S 54°49' W 068°18'0 0.0
2018-Apr-29 03:50S 54°49' W 068°18'0 0.0
2018-Apr-29 03:30S 54°49' W 068°18'0 0.0
2018-Apr-29 03:00S 54°49' W 068°18'0 0.8
2018-Apr-29 02:31S 54°49' W 068°17'1 2.7
2018-Apr-29 02:00S 54°49' W 068°15'1 1.5
2018-Apr-29 01:00S 54°50' W 068°13'3 6.5
2018-Apr-29 00:30S 54°49' W 068°18'0 0.0
2018-Apr-28 23:44S 54°49' W 068°18'0 0.0
2018-Apr-28 22:41S 54°49' W 068°18'0 0.0
2018-Apr-28 22:29S 54°49' W 068°18'0 0.0
2018-Apr-28 21:59S 54°49' W 068°18'0 0.0
2018-Apr-28 21:29S 54°49' W 068°18'0 0.0
2018-Apr-28 20:47S 54°49' W 068°18'0 0.0
2018-Apr-28 20:29S 54°49' W 068°18'0 0.0
2018-Apr-28 19:56S 54°49' W 068°18'0 0.0
2018-Apr-28 19:14S 54°49' W 068°18'0 0.0
2018-Apr-28 18:50S 54°49' W 068°18'0 0.0
2018-Apr-28 18:29S 54°49' W 068°18'0 0.0
2018-Apr-28 17:44S 54°49' W 068°18'0 0.0
2018-Apr-28 17:29S 54°49' W 068°18'0 0.0
2018-Apr-28 16:59S 54°49' W 068°18'  
Track history (hours):
 
Tides and Currents Weather Stations Pressure Air Temp Water Temp Dewpoint Dewpoint Depression Visibility Wind Speed Wind Dir Waves Ship Positions

Echizen Maru

Last reported at 2018-Apr-30 00:58 UTC. Time now 2018-Jun-18 09:52 UTC.
Position S 54°50' W 068°11'.
Warning: this ship's position is 49 days out of date.

Length 89 m; draft 5.7 m.

Type: Fishing. MMSI: 701068000.

Date/timePositionNaut miles runAvg speedWind from/ knotsBaromVisibWave heightAir tempDewpointWater temp
2018-Apr-30 00:58S 54°50' W 068°11'4 9.2
2018-Apr-30 00:30S 54°49' W 068°18'0 0.2
2018-Apr-30 00:00S 54°49' W 068°18'0 0.0
2018-Apr-29 23:29S 54°49' W 068°18'0 0.0
2018-Apr-29 21:47S 54°49' W 068°18'0 0.0
2018-Apr-29 21:20S 54°49' W 068°18'0 0.0
2018-Apr-29 20:56S 54°49' W 068°18'0 0.0
2018-Apr-29 20:29S 54°49' W 068°18'0 0.0
2018-Apr-29 19:53S 54°49' W 068°18'0 0.0
2018-Apr-29 19:26S 54°49' W 068°18'0 0.0
2018-Apr-29 18:59S 54°49' W 068°18'0 0.0
2018-Apr-29 18:17S 54°49' W 068°18'0 0.0
2018-Apr-29 17:53S 54°49' W 068°18'0 0.0
2018-Apr-29 17:26S 54°49' W 068°18'0 0.0
2018-Apr-29 16:56S 54°49' W 068°18'0 0.0
2018-Apr-29 16:29S 54°49' W 068°18'0 0.0
2018-Apr-29 15:32S 54°49' W 068°18'0 0.0
2018-Apr-29 14:38S 54°49' W 068°18'0 0.0
2018-Apr-29 14:26S 54°49' W 068°18'0 0.0
2018-Apr-29 13:44S 54°49' W 068°18'0 0.0
2018-Apr-29 13:26S 54°49' W 068°18'0 0.0
2018-Apr-29 12:56S 54°49' W 068°18'0 0.0
2018-Apr-29 12:23S 54°49' W 068°18'0 0.0
2018-Apr-29 11:59S 54°49' W 068°18'0 0.0
2018-Apr-29 11:23S 54°49' W 068°18'0 0.0
2018-Apr-29 10:53S 54°49' W 068°18'0 0.0
2018-Apr-29 10:29S 54°49' W 068°18'0 0.0
2018-Apr-29 09:59S 54°49' W 068°18'0 0.0
2018-Apr-29 09:26S 54°49' W 068°18'0 0.0
2018-Apr-29 08:56S 54°49' W 068°18'0 0.0
2018-Apr-29 08:14S 54°49' W 068°18'0 0.0
2018-Apr-29 07:44S 54°49' W 068°18'0 0.0
2018-Apr-29 07:26S 54°49' W 068°18'0 0.0
2018-Apr-29 06:20S 54°49' W 068°18'0 0.0
2018-Apr-29 05:50S 54°49' W 068°18'0 0.0
2018-Apr-29 05:23S 54°49' W 068°18'0 0.0
2018-Apr-29 04:56S 54°49' W 068°18'0 0.0
2018-Apr-29 04:26S 54°49' W 068°18'0 0.0
2018-Apr-29 03:50S 54°49' W 068°18'0 0.0
2018-Apr-29 03:30S 54°49' W 068°18'0 0.0
2018-Apr-29 03:00S 54°49' W 068°18'0 0.8
2018-Apr-29 02:31S 54°49' W 068°17'1 2.7
2018-Apr-29 02:00S 54°49' W 068°15'1 1.5
2018-Apr-29 01:00S 54°50' W 068°13'3 6.5
2018-Apr-29 00:30S 54°49' W 068°18'0 0.0
2018-Apr-28 23:44S 54°49' W 068°18'0 0.0
2018-Apr-28 22:41S 54°49' W 068°18'0 0.0
2018-Apr-28 22:29S 54°49' W 068°18'0 0.0
2018-Apr-28 21:59S 54°49' W 068°18'0 0.0
2018-Apr-28 21:29S 54°49' W 068°18'0 0.0
2018-Apr-28 20:47S 54°49' W 068°18'0 0.0
2018-Apr-28 20:29S 54°49' W 068°18'0 0.0
2018-Apr-28 19:56S 54°49' W 068°18'0 0.0
2018-Apr-28 19:14S 54°49' W 068°18'0 0.0
2018-Apr-28 18:50S 54°49' W 068°18'0 0.0
2018-Apr-28 18:29S 54°49' W 068°18'0 0.0
2018-Apr-28 17:44S 54°49' W 068°18'0 0.0
2018-Apr-28 17:29S 54°49' W 068°18'0 0.0
2018-Apr-28 16:59S 54°49' W 068°18'  

Dump ship's entire track history